createdAt,value
2017-04-02T00:00:23.196Z,0
2017-04-02T00:01:23.177Z,0
2017-04-02T00:02:22.860Z,0
2017-04-02T00:03:23.142Z,0
2017-04-02T00:04:23.131Z,0
2017-04-02T00:05:23.112Z,0
2017-04-02T00:06:23.095Z,0
2017-04-02T00:07:23.080Z,0
2017-04-02T00:08:23.064Z,0
2017-04-02T00:09:23.050Z,0
2017-04-02T00:10:22.725Z,0
2017-04-02T00:11:23.016Z,0
2017-04-02T00:12:22.999Z,0
2017-04-02T00:13:22.976Z,0
2017-04-02T00:14:22.960Z,0
2017-04-02T00:15:22.941Z,0
2017-04-02T00:16:22.925Z,0
2017-04-02T00:17:22.907Z,0
2017-04-02T00:18:22.894Z,0
2017-04-02T00:19:22.870Z,0
2017-04-02T00:20:22.859Z,0
2017-04-02T00:21:22.547Z,0
2017-04-02T00:22:22.864Z,0
2017-04-02T00:23:22.809Z,0
2017-04-02T00:24:22.992Z,0
2017-04-02T00:25:22.773Z,0
2017-04-02T00:26:22.761Z,0
2017-04-02T00:27:22.437Z,0
2017-04-02T00:28:22.722Z,0
2017-04-02T00:29:22.706Z,0
2017-04-02T00:30:22.691Z,0
2017-04-02T00:31:22.671Z,0
2017-04-02T00:32:22.862Z,0
2017-04-02T00:33:22.637Z,0
2017-04-02T00:34:22.623Z,0
2017-04-02T00:35:22.602Z,0
2017-04-02T00:36:22.591Z,0
2017-04-02T00:37:22.574Z,0
2017-04-02T00:38:22.552Z,0
2017-04-02T00:39:22.535Z,0
2017-04-02T00:40:22.520Z,0
2017-04-02T00:41:22.509Z,0
2017-04-02T00:42:22.482Z,0
2017-04-02T00:43:22.465Z,0
2017-04-02T00:44:22.154Z,0
2017-04-02T00:45:22.437Z,0
2017-04-02T00:46:22.416Z,0
2017-04-02T00:47:22.404Z,0
2017-04-02T00:48:22.386Z,0
2017-04-02T00:49:22.366Z,0
2017-04-02T00:50:22.348Z,0
2017-04-02T00:51:22.335Z,0
2017-04-02T00:52:22.313Z,0
2017-04-02T00:53:22.513Z,0
2017-04-02T00:54:22.285Z,0
2017-04-02T00:55:22.268Z,0
2017-04-02T00:56:22.249Z,0
2017-04-02T00:57:22.230Z,0
2017-04-02T00:58:35.595Z,0
2017-04-02T00:59:22.203Z,0
2017-04-02T01:00:22.217Z,0
2017-04-02T01:01:21.873Z,0
2017-04-02T01:02:36.797Z,0
2017-04-02T01:03:22.334Z,0
2017-04-02T01:04:22.110Z,0
2017-04-02T01:05:22.099Z,0
2017-04-02T01:06:22.076Z,0
2017-04-02T01:07:22.060Z,0
2017-04-02T01:08:22.049Z,0
2017-04-02T01:09:22.026Z,0
2017-04-02T01:10:22.017Z,0
2017-04-02T01:11:21.997Z,0
2017-04-02T01:12:21.983Z,0
2017-04-02T01:13:21.966Z,0
2017-04-02T01:14:21.945Z,0
2017-04-02T01:15:21.940Z,0
2017-04-02T01:16:21.908Z,0
2017-04-02T01:17:21.891Z,0
2017-04-02T01:18:21.878Z,0
2017-04-02T01:19:21.859Z,0
2017-04-02T01:20:21.841Z,0
2017-04-02T01:21:21.530Z,0
2017-04-02T01:22:21.810Z,0
2017-04-02T01:23:21.797Z,0
2017-04-02T01:24:21.472Z,0
2017-04-02T01:25:21.459Z,0
2017-04-02T01:26:21.740Z,0
2017-04-02T01:27:21.724Z,0
2017-04-02T01:28:21.706Z,0
2017-04-02T01:29:21.688Z,0
2017-04-02T01:30:21.675Z,0
2017-04-02T01:31:21.661Z,0
2017-04-02T01:32:21.642Z,0
2017-04-02T01:33:21.833Z,0
2017-04-02T01:34:21.611Z,0
2017-04-02T01:35:21.588Z,0
2017-04-02T01:36:21.576Z,0
2017-04-02T01:37:21.553Z,0
2017-04-02T01:38:21.532Z,0
2017-04-02T01:39:21.523Z,0
2017-04-02T01:40:21.506Z,0
2017-04-02T01:41:21.479Z,0
2017-04-02T01:42:21.469Z,0
2017-04-02T01:43:21.453Z,0
2017-04-02T01:44:21.426Z,0
2017-04-02T01:45:21.418Z,0
2017-04-02T01:46:21.401Z,0
2017-04-02T01:47:21.385Z,0
2017-04-02T01:48:21.364Z,0
2017-04-02T01:49:21.044Z,0
2017-04-02T01:50:21.327Z,0
2017-04-02T01:51:21.315Z,0
2017-04-02T01:52:21.297Z,0
2017-04-02T01:53:21.274Z,0
2017-04-02T01:54:21.262Z,0
2017-04-02T01:55:21.248Z,0
2017-04-02T01:56:21.234Z,0
2017-04-02T01:57:21.214Z,0
2017-04-02T01:58:21.187Z,0
2017-04-02T01:59:21.179Z,0
2017-04-02T02:00:21.158Z,0
2017-04-02T02:01:21.178Z,0
2017-04-02T02:02:34.769Z,0
2017-04-02T02:03:21.113Z,0
2017-04-02T02:04:21.088Z,0
2017-04-02T02:05:21.071Z,0
2017-04-02T02:06:21.261Z,0
2017-04-02T02:07:21.038Z,0
2017-04-02T02:08:21.031Z,0
2017-04-02T02:09:21.004Z,0
2017-04-02T02:10:20.984Z,0
2017-04-02T02:11:21.171Z,0
2017-04-02T02:12:20.951Z,0
2017-04-02T02:13:20.975Z,0
2017-04-02T02:14:20.956Z,0
2017-04-02T02:15:20.903Z,0
2017-04-02T02:16:20.887Z,0
2017-04-02T02:17:20.865Z,0
2017-04-02T02:18:20.850Z,0
2017-04-02T02:19:20.580Z,0
2017-04-02T02:20:20.817Z,0
2017-04-02T02:21:20.799Z,0
2017-04-02T02:22:20.782Z,0
2017-04-02T02:23:20.765Z,0
2017-04-02T02:24:20.751Z,0
2017-04-02T02:25:20.732Z,0
2017-04-02T02:26:20.715Z,0
2017-04-02T02:27:20.700Z,0
2017-04-02T02:28:20.673Z,0
2017-04-02T02:29:20.361Z,0
2017-04-02T02:30:20.345Z,0
2017-04-02T02:31:20.626Z,0
2017-04-02T02:32:20.617Z,0
2017-04-02T02:33:20.586Z,0
2017-04-02T02:34:20.573Z,0
2017-04-02T02:35:20.558Z,0
2017-04-02T02:36:20.242Z,0
2017-04-02T02:37:20.519Z,0
2017-04-02T02:38:20.508Z,0
2017-04-02T02:39:20.485Z,0
2017-04-02T02:40:20.469Z,0
2017-04-02T02:41:20.455Z,0
2017-04-02T02:42:20.343Z,0
2017-04-02T02:43:20.418Z,0
2017-04-02T02:44:20.399Z,0
2017-04-02T02:45:20.384Z,0
2017-04-02T02:46:20.104Z,0
2017-04-02T02:47:20.349Z,0
2017-04-02T02:48:20.333Z,0
2017-04-02T02:49:20.315Z,0
2017-04-02T02:50:20.302Z,0
2017-04-02T02:51:20.281Z,0
2017-04-02T02:52:19.969Z,0
2017-04-02T02:53:20.249Z,0
2017-04-02T02:54:20.231Z,0
2017-04-02T02:55:20.212Z,0
2017-04-02T02:56:20.201Z,0
2017-04-02T02:57:20.176Z,0
2017-04-02T02:58:19.864Z,0
2017-04-02T02:59:20.145Z,0
2017-04-02T03:00:20.134Z,0
2017-04-02T03:01:20.111Z,0
2017-04-02T03:02:20.090Z,0
2017-04-02T03:03:20.074Z,0
2017-04-02T03:04:20.062Z,0
2017-04-02T03:05:20.040Z,0
2017-04-02T03:06:20.026Z,0
2017-04-02T03:07:20.013Z,0
2017-04-02T03:08:19.994Z,0
2017-04-02T03:09:20.017Z,0
2017-04-02T03:10:19.955Z,0
2017-04-02T03:11:33.313Z,0
2017-04-02T03:12:19.921Z,0
2017-04-02T03:13:19.906Z,0
2017-04-02T03:14:19.882Z,0
2017-04-02T03:15:19.871Z,0
2017-04-02T03:16:20.058Z,0
2017-04-02T03:17:19.532Z,0
2017-04-02T03:18:19.815Z,0
2017-04-02T03:19:19.799Z,0
2017-04-02T03:20:19.985Z,0
2017-04-02T03:21:19.974Z,0
2017-04-02T03:22:19.753Z,0
2017-04-02T03:23:19.736Z,0
2017-04-02T03:24:19.715Z,0
2017-04-02T03:25:19.706Z,0
2017-04-02T03:26:19.687Z,0
2017-04-02T03:27:19.661Z,0
2017-04-02T03:28:19.647Z,0
2017-04-02T03:29:19.630Z,0
2017-04-02T03:30:19.617Z,0
2017-04-02T03:31:19.601Z,0
2017-04-02T03:32:19.581Z,0
2017-04-02T03:33:19.561Z,0
2017-04-02T03:34:19.556Z,0
2017-04-02T03:35:19.528Z,0
2017-04-02T03:36:19.512Z,0
2017-04-02T03:37:19.189Z,0
2017-04-02T03:38:19.178Z,0
2017-04-02T03:39:19.460Z,0
2017-04-02T03:40:19.144Z,0
2017-04-02T03:41:19.423Z,0
2017-04-02T03:42:19.105Z,0
2017-04-02T03:43:19.387Z,0
2017-04-02T03:44:19.368Z,0
2017-04-02T03:45:19.558Z,0
2017-04-02T03:46:19.033Z,0
2017-04-02T03:47:19.315Z,0
2017-04-02T03:48:19.306Z,0
2017-04-02T03:49:19.285Z,0
2017-04-02T03:50:19.270Z,0
2017-04-02T03:51:19.250Z,0
2017-04-02T03:52:18.935Z,0
2017-04-02T03:53:19.216Z,0
2017-04-02T03:54:19.198Z,0
2017-04-02T03:55:18.884Z,0
2017-04-02T03:56:19.172Z,0
2017-04-02T03:57:19.147Z,0
2017-04-02T03:58:18.832Z,0
2017-04-02T03:59:18.819Z,0
2017-04-02T04:00:19.096Z,0
2017-04-02T04:01:19.086Z,0
2017-04-02T04:02:18.770Z,0
2017-04-02T04:03:19.044Z,0
2017-04-02T04:04:19.029Z,0
2017-04-02T04:05:19.015Z,0
2017-04-02T04:06:19.004Z,0
2017-04-02T04:07:18.681Z,0
2017-04-02T04:08:18.964Z,0
2017-04-02T04:09:18.949Z,0
2017-04-02T04:10:18.928Z,0
2017-04-02T04:11:18.911Z,0
2017-04-02T04:12:18.904Z,0
2017-04-02T04:13:18.887Z,0
2017-04-02T04:14:18.877Z,0
2017-04-02T04:15:18.853Z,0
2017-04-02T04:16:18.538Z,0
2017-04-02T04:17:18.514Z,0
2017-04-02T04:18:18.795Z,0
2017-04-02T04:19:18.781Z,4
2017-04-02T04:20:18.762Z,4
2017-04-02T04:21:18.447Z,0
2017-04-02T04:22:18.738Z,4
2017-04-02T04:23:18.718Z,4
2017-04-02T04:24:18.693Z,4
2017-04-02T04:25:18.681Z,8
2017-04-02T04:26:18.703Z,8
2017-04-02T04:27:18.649Z,8
2017-04-02T04:28:18.328Z,8
2017-04-02T04:29:18.610Z,12
2017-04-02T04:30:18.597Z,12
2017-04-02T04:31:18.578Z,16
2017-04-02T04:32:18.254Z,20
2017-04-02T04:33:18.544Z,24
2017-04-02T04:34:18.525Z,32
2017-04-02T04:35:18.507Z,36
2017-04-02T04:36:18.492Z,44
2017-04-02T04:37:18.478Z,52
2017-04-02T04:38:18.459Z,64
2017-04-02T04:39:18.450Z,72
2017-04-02T04:40:18.421Z,88
2017-04-02T04:41:18.107Z,100
2017-04-02T04:42:18.386Z,120
2017-04-02T04:43:18.369Z,136
2017-04-02T04:44:18.350Z,156
2017-04-02T04:45:18.337Z,184
2017-04-02T04:46:18.019Z,212
2017-04-02T04:47:18.301Z,240
2017-04-02T04:48:18.287Z,268
2017-04-02T04:49:18.261Z,304
2017-04-02T04:50:18.249Z,340
2017-04-02T04:51:18.232Z,372
2017-04-02T04:52:18.213Z,412
2017-04-02T04:53:18.203Z,460
2017-04-02T04:54:18.187Z,504
2017-04-02T04:55:18.164Z,556
2017-04-02T04:56:18.147Z,616
2017-04-02T04:57:18.127Z,688
2017-04-02T04:58:18.112Z,792
2017-04-02T04:59:18.098Z,916
2017-04-02T05:00:18.080Z,988
2017-04-02T05:01:18.060Z,1056
2017-04-02T05:02:18.041Z,1232
2017-04-02T05:03:18.022Z,1388
2017-04-02T05:04:18.010Z,1452
2017-04-02T05:05:17.989Z,1628
2017-04-02T05:06:17.980Z,1852
2017-04-02T05:07:17.658Z,2024
2017-04-02T05:08:17.944Z,2084
2017-04-02T05:09:17.925Z,2032
2017-04-02T05:10:17.910Z,1968
2017-04-02T05:11:17.900Z,2000
2017-04-02T05:12:17.875Z,2088
2017-04-02T05:13:17.857Z,2228
2017-04-02T05:14:17.840Z,2520
2017-04-02T05:15:17.824Z,2644
2017-04-02T05:16:17.813Z,2648
2017-04-02T05:17:17.790Z,2748
2017-04-02T05:18:17.778Z,2880
2017-04-02T05:19:17.767Z,3060
2017-04-02T05:20:17.740Z,3280
2017-04-02T05:21:17.724Z,3584
2017-04-02T05:22:17.710Z,4088
2017-04-02T05:23:17.695Z,4380
2017-04-02T05:24:17.677Z,4836
2017-04-02T05:25:17.672Z,5588
2017-04-02T05:26:17.649Z,6232
2017-04-02T05:27:17.326Z,6848
2017-04-02T05:28:17.611Z,6968
2017-04-02T05:29:17.597Z,6024
2017-04-02T05:30:17.581Z,5972
2017-04-02T05:31:17.564Z,6760
2017-04-02T05:32:17.548Z,8376
2017-04-02T05:33:17.534Z,8076
2017-04-02T05:34:17.514Z,9224
2017-04-02T05:35:17.501Z,8988
2017-04-02T05:36:17.480Z,9204
2017-04-02T05:37:17.466Z,9812
2017-04-02T05:38:17.445Z,11248
2017-04-02T05:39:17.431Z,11244
2017-04-02T05:40:17.419Z,11724
2017-04-02T05:41:17.399Z,13136
2017-04-02T05:42:17.381Z,14432
2017-04-02T05:43:17.364Z,15232
2017-04-02T05:44:17.355Z,13348
2017-04-02T05:45:17.333Z,13760
2017-04-02T05:46:17.316Z,11812
2017-04-02T05:47:17.306Z,11660
2017-04-02T05:48:17.282Z,13684
2017-04-02T05:49:17.271Z,18848
2017-04-02T05:50:17.258Z,21216
2017-04-02T05:51:17.246Z,22304
2017-04-02T05:52:17.224Z,21984
2017-04-02T05:53:17.210Z,22048
2017-04-02T05:54:17.203Z,23968
2017-04-02T05:55:16.884Z,26144
2017-04-02T05:56:17.203Z,26560
2017-04-02T05:57:17.152Z,25824
2017-04-02T05:58:17.133Z,26368
2017-04-02T05:59:17.120Z,26848
2017-04-02T06:00:17.104Z,27232
2017-04-02T06:01:17.098Z,27136
2017-04-02T06:02:17.078Z,26144
2017-04-02T06:03:17.074Z,25952
2017-04-02T06:04:16.749Z,26112
2017-04-02T06:05:16.741Z,25056
2017-04-02T06:06:17.030Z,25088
2017-04-02T06:07:17.008Z,25152
2017-04-02T06:08:16.997Z,24576
2017-04-02T06:09:16.989Z,26752
2017-04-02T06:10:16.971Z,26368
2017-04-02T06:11:16.956Z,26400
2017-04-02T06:12:16.959Z,25888
2017-04-02T06:13:16.629Z,25952
2017-04-02T06:14:16.624Z,25792
2017-04-02T06:15:16.905Z,27680
2017-04-02T06:16:16.598Z,28864
2017-04-02T06:17:16.883Z,27040
2017-04-02T06:18:16.868Z,26304
2017-04-02T06:19:16.857Z,25280
2017-04-02T06:20:16.842Z,18816
2017-04-02T06:21:16.833Z,16040
2017-04-02T06:22:16.822Z,15256
2017-04-02T06:23:16.804Z,14060
2017-04-02T06:24:16.789Z,14168
2017-04-02T06:25:16.780Z,14840
2017-04-02T06:26:16.768Z,14744
2017-04-02T06:27:16.454Z,14196
2017-04-02T06:28:16.438Z,16800
2017-04-02T06:29:16.423Z,14944
2017-04-02T06:30:15.814Z,14504
2017-04-02T06:31:16.100Z,13680
2017-04-02T06:32:16.389Z,13364
2017-04-02T06:33:16.677Z,12860
2017-04-02T06:34:16.056Z,13168
2017-04-02T06:35:16.646Z,12888
2017-04-02T06:36:16.639Z,12800
2017-04-02T06:37:16.019Z,12716
2017-04-02T06:38:16.608Z,12600
2017-04-02T06:39:15.987Z,12436
2017-04-02T06:40:16.585Z,12140
2017-04-02T06:41:16.564Z,12108
2017-04-02T06:42:15.952Z,12132
2017-04-02T06:43:16.238Z,12236
2017-04-02T06:44:15.923Z,12008
2017-04-02T06:45:16.214Z,11896
2017-04-02T06:46:16.498Z,12384
2017-04-02T06:47:16.183Z,14920
2017-04-02T06:48:16.468Z,13844
2017-04-02T06:49:16.459Z,12356
2017-04-02T06:50:16.445Z,11524
2017-04-02T06:51:16.424Z,12304
2017-04-02T06:52:16.422Z,12720
2017-04-02T06:53:16.403Z,13524
2017-04-02T06:54:16.391Z,13884
2017-04-02T06:55:16.372Z,15368
2017-04-02T06:56:16.358Z,16192
2017-04-02T06:57:16.041Z,17632
2017-04-02T06:58:16.327Z,17888
2017-04-02T06:59:16.011Z,22816
2017-04-02T07:00:15.996Z,19328
2017-04-02T07:01:16.290Z,22528
2017-04-02T07:02:16.266Z,21376
2017-04-02T07:03:15.956Z,29184
2017-04-02T07:04:16.248Z,27840
2017-04-02T07:05:15.930Z,34368
2017-04-02T07:06:15.615Z,29920
2017-04-02T07:07:16.204Z,28704
2017-04-02T07:08:15.885Z,31328
2017-04-02T07:09:16.171Z,31392
2017-04-02T07:10:15.870Z,30464
2017-04-02T07:11:15.847Z,36320
2017-04-02T07:12:15.832Z,29408
2017-04-02T07:13:15.817Z,34944
2017-04-02T07:14:16.103Z,23744
2017-04-02T07:15:16.087Z,25728
2017-04-02T07:16:16.076Z,24960
2017-04-02T07:17:16.064Z,23136
2017-04-02T07:18:16.046Z,25504
2017-04-02T07:19:16.035Z,29376
2017-04-02T07:20:16.021Z,30624
2017-04-02T07:21:16.010Z,28320
2017-04-02T07:22:15.694Z,34688
2017-04-02T07:23:15.986Z,32096
2017-04-02T07:24:15.966Z,28704
2017-04-02T07:25:15.658Z,29664
2017-04-02T07:26:15.639Z,31904
2017-04-02T07:27:15.922Z,30816
2017-04-02T07:28:15.912Z,29984
2017-04-02T07:29:15.904Z,28608
2017-04-02T07:30:15.880Z,28480
2017-04-02T07:31:15.870Z,27296
2017-04-02T07:32:15.858Z,29056
2017-04-02T07:33:15.846Z,28416
2017-04-02T07:34:15.830Z,28000
2017-04-02T07:35:15.853Z,26944
2017-04-02T07:36:15.805Z,25920
2017-04-02T07:37:15.792Z,26432
2017-04-02T07:38:15.776Z,27744
2017-04-02T07:39:15.763Z,28288
2017-04-02T07:40:15.455Z,27520
2017-04-02T07:41:15.747Z,25728
2017-04-02T07:42:15.726Z,26880
2017-04-02T07:43:15.713Z,28128
2017-04-02T07:44:15.696Z,26496
2017-04-02T07:45:15.387Z,22528
2017-04-02T07:46:15.679Z,23904
2017-04-02T07:47:15.655Z,24000
2017-04-02T07:48:15.648Z,23872
2017-04-02T07:49:15.632Z,22432
2017-04-02T07:50:15.616Z,23520
2017-04-02T07:51:15.605Z,24544
2017-04-02T07:52:15.594Z,28960
2017-04-02T07:53:15.580Z,31808
2017-04-02T07:54:15.564Z,29792
2017-04-02T07:55:15.553Z,36320
2017-04-02T07:56:15.545Z,39776
2017-04-02T07:57:15.530Z,41088
2017-04-02T07:58:15.520Z,41984
2017-04-02T07:59:15.502Z,43744
2017-04-02T08:00:15.489Z,48288
2017-04-02T08:01:15.482Z,45632
2017-04-02T08:02:15.471Z,46560
2017-04-02T08:03:15.456Z,51168
2017-04-02T08:04:15.443Z,45728
2017-04-02T08:05:15.432Z,48416
2017-04-02T08:06:15.426Z,51328
2017-04-02T08:07:15.408Z,55200
2017-04-02T08:08:15.428Z,54240
2017-04-02T08:09:15.390Z,53760
2017-04-02T08:10:15.377Z,59232
2017-04-02T08:11:15.066Z,57760
2017-04-02T08:12:15.050Z,49376
2017-04-02T08:13:15.341Z,50432
2017-04-02T08:14:15.326Z,51360
2017-04-02T08:15:15.316Z,52128
2017-04-02T08:16:15.308Z,53440
2017-04-02T08:17:15.297Z,57344
2017-04-02T08:18:14.977Z,57344
2017-04-02T08:19:15.275Z,59072
2017-04-02T08:20:15.270Z,55328
2017-04-02T08:21:15.249Z,62784
2017-04-02T08:22:14.952Z,69088
2017-04-02T08:23:15.233Z,59648
2017-04-02T08:24:15.216Z,67936
2017-04-02T08:25:14.606Z,80608
2017-04-02T08:26:15.201Z,78624
2017-04-02T08:27:15.192Z,76128
2017-04-02T08:28:14.881Z,76160
2017-04-02T08:29:14.866Z,68992
2017-04-02T08:30:15.158Z,52608
2017-04-02T08:31:15.154Z,66944
2017-04-02T08:32:15.143Z,87008
2017-04-02T08:33:15.134Z,77920
2017-04-02T08:34:15.126Z,41984
2017-04-02T08:35:15.113Z,44864
2017-04-02T08:36:15.103Z,68672
2017-04-02T08:37:15.094Z,63168
2017-04-02T08:38:15.084Z,44384
2017-04-02T08:39:15.070Z,57472
2017-04-02T08:40:15.062Z,58496
2017-04-02T08:41:15.051Z,69856
2017-04-02T08:42:15.044Z,69824
2017-04-02T08:43:15.032Z,67136
2017-04-02T08:44:15.023Z,57504
2017-04-02T08:45:15.012Z,35616
2017-04-02T08:46:15.003Z,50400
2017-04-02T08:47:14.992Z,42176
2017-04-02T08:48:14.982Z,50560
2017-04-02T08:49:14.968Z,41920
2017-04-02T08:50:14.961Z,36384
2017-04-02T08:51:14.947Z,53248
2017-04-02T08:52:14.949Z,47648
2017-04-02T08:53:14.933Z,74464
2017-04-02T08:54:14.921Z,60896
2017-04-02T08:55:14.611Z,60608
2017-04-02T08:56:14.595Z,64096
2017-04-02T08:57:14.886Z,64672
2017-04-02T08:58:14.876Z,81472
2017-04-02T08:59:14.563Z,86880
2017-04-02T09:00:13.950Z,96000
2017-04-02T09:01:14.849Z,88864
2017-04-02T09:02:14.843Z,75712
2017-04-02T09:03:14.822Z,73280
2017-04-02T09:04:14.816Z,83520
2017-04-02T09:05:14.804Z,84224
2017-04-02T09:06:14.792Z,82208
2017-04-02T09:07:14.513Z,86304
2017-04-02T09:08:14.467Z,84384
2017-04-02T09:09:14.758Z,74816
2017-04-02T09:10:14.751Z,72352
2017-04-02T09:11:14.734Z,75872
2017-04-02T09:12:14.725Z,89376
2017-04-02T09:13:14.712Z,92064
2017-04-02T09:14:14.702Z,87456
2017-04-02T09:15:14.698Z,40096
2017-04-02T09:16:14.680Z,54816
2017-04-02T09:17:14.676Z,61248
2017-04-02T09:18:14.659Z,59168
2017-04-02T09:19:14.642Z,70752
2017-04-02T09:20:14.337Z,82784
2017-04-02T09:21:14.316Z,97440
2017-04-02T09:22:14.313Z,97472
2017-04-02T09:23:14.595Z,96448
2017-04-02T09:24:14.282Z,96928
2017-04-02T09:25:14.612Z,63296
2017-04-02T09:26:13.962Z,57984
2017-04-02T09:27:14.557Z,58112
2017-04-02T09:28:14.546Z,72384
2017-04-02T09:29:14.526Z,89824
2017-04-02T09:30:14.244Z,86112
2017-04-02T09:31:14.498Z,87296
2017-04-02T09:32:14.186Z,83488
2017-04-02T09:33:14.479Z,78880
2017-04-02T09:34:14.163Z,79232
2017-04-02T09:35:14.150Z,82144
2017-04-02T09:36:14.144Z,78912
2017-04-02T09:37:14.434Z,78240
2017-04-02T09:38:14.420Z,83968
2017-04-02T09:39:14.100Z,78432
2017-04-02T09:40:14.091Z,79616
2017-04-02T09:41:14.381Z,77120
2017-04-02T09:42:14.064Z,70912
2017-04-02T09:43:14.050Z,58720
2017-04-02T09:44:14.042Z,43648
2017-04-02T09:45:14.333Z,45952
2017-04-02T09:46:14.017Z,38208
2017-04-02T09:47:13.998Z,32416
2017-04-02T09:48:13.686Z,38816
2017-04-02T09:49:14.276Z,45024
2017-04-02T09:50:14.278Z,43296
2017-04-02T09:51:14.252Z,51776
2017-04-02T09:52:14.243Z,51136
2017-04-02T09:53:14.225Z,52896
2017-04-02T09:54:14.212Z,55680
2017-04-02T09:55:14.233Z,54848
2017-04-02T09:56:13.890Z,65120
2017-04-02T09:57:14.173Z,68064
2017-04-02T09:58:14.159Z,62016
2017-04-02T09:59:14.149Z,71104
2017-04-02T10:00:14.138Z,74112
2017-04-02T10:01:14.118Z,75200
2017-04-02T10:02:13.810Z,70560
2017-04-02T10:03:13.793Z,70144
2017-04-02T10:04:14.082Z,68608
2017-04-02T10:05:14.071Z,65760
2017-04-02T10:06:14.054Z,64576
2017-04-02T10:07:14.041Z,59968
2017-04-02T10:08:14.024Z,59808
2017-04-02T10:09:14.017Z,57024
2017-04-02T10:10:14.000Z,53664
2017-04-02T10:11:13.996Z,55648
2017-04-02T10:12:13.670Z,63936
2017-04-02T10:13:13.658Z,72352
2017-04-02T10:14:13.041Z,71456
2017-04-02T10:15:13.635Z,76736
2017-04-02T10:16:13.616Z,72160
2017-04-02T10:17:13.613Z,73120
2017-04-02T10:18:13.291Z,72256
2017-04-02T10:19:13.883Z,76864
2017-04-02T10:20:13.567Z,88960
2017-04-02T10:21:13.864Z,103168
2017-04-02T10:22:13.847Z,98080
2017-04-02T10:23:13.828Z,90176
2017-04-02T10:24:13.810Z,90688
2017-04-02T10:25:13.198Z,93248
2017-04-02T10:26:13.795Z,99968
2017-04-02T10:27:13.776Z,94176
2017-04-02T10:28:13.464Z,99776
2017-04-02T10:29:13.453Z,90016
2017-04-02T10:30:13.746Z,90048
2017-04-02T10:31:13.430Z,81248
2017-04-02T10:32:13.722Z,73920
2017-04-02T10:33:13.707Z,74272
2017-04-02T10:34:13.703Z,82880
2017-04-02T10:35:13.382Z,81952
2017-04-02T10:36:13.673Z,87200
2017-04-02T10:37:13.356Z,90208
2017-04-02T10:38:13.341Z,90496
2017-04-02T10:39:13.637Z,100608
2017-04-02T10:40:13.628Z,123616
2017-04-02T10:41:13.614Z,119968
2017-04-02T10:42:13.300Z,121760
2017-04-02T10:43:13.289Z,120320
2017-04-02T10:44:13.580Z,113440
2017-04-02T10:45:13.568Z,123488
2017-04-02T10:46:13.563Z,114240
2017-04-02T10:47:13.544Z,105696
2017-04-02T10:48:13.531Z,110208
2017-04-02T10:49:13.526Z,65024
2017-04-02T10:50:13.506Z,57696
2017-04-02T10:51:13.199Z,54176
2017-04-02T10:52:13.493Z,51008
2017-04-02T10:53:13.179Z,64672
2017-04-02T10:54:13.167Z,82016
2017-04-02T10:55:13.459Z,99072
2017-04-02T10:56:13.146Z,106048
2017-04-02T10:57:13.444Z,107808
2017-04-02T10:58:13.125Z,112896
2017-04-02T10:59:13.420Z,119264
2017-04-02T11:00:13.404Z,113216
2017-04-02T11:01:13.396Z,99008
2017-04-02T11:02:13.385Z,89600
2017-04-02T11:03:13.375Z,86048
2017-04-02T11:04:13.363Z,79552
2017-04-02T11:05:13.403Z,75424
2017-04-02T11:06:13.044Z,74304
2017-04-02T11:07:13.337Z,77888
2017-04-02T11:08:13.320Z,88096
2017-04-02T11:09:13.316Z,103104
2017-04-02T11:10:13.304Z,108512
2017-04-02T11:11:12.994Z,105184
2017-04-02T11:12:13.288Z,98912
2017-04-02T11:13:13.272Z,91232
2017-04-02T11:14:13.265Z,80288
2017-04-02T11:15:13.246Z,76320
2017-04-02T11:16:12.933Z,80832
2017-04-02T11:17:13.224Z,82080
2017-04-02T11:18:13.218Z,89472
2017-04-02T11:19:13.199Z,99136
2017-04-02T11:20:12.893Z,101056
2017-04-02T11:21:13.179Z,99296
2017-04-02T11:22:13.173Z,95488
2017-04-02T11:23:13.164Z,90880
2017-04-02T11:24:12.840Z,89472
2017-04-02T11:25:12.829Z,88320
2017-04-02T11:26:12.821Z,91008
2017-04-02T11:27:13.116Z,95648
2017-04-02T11:28:13.103Z,107648
2017-04-02T11:29:13.098Z,120256
2017-04-02T11:30:12.773Z,106624
2017-04-02T11:31:13.073Z,88672
2017-04-02T11:32:13.059Z,84288
2017-04-02T11:33:13.047Z,79360
2017-04-02T11:34:12.738Z,78528
2017-04-02T11:35:13.035Z,84416
2017-04-02T11:36:13.023Z,84128
2017-04-02T11:37:13.008Z,85952
2017-04-02T11:38:12.999Z,88064
2017-04-02T11:39:12.992Z,82912
2017-04-02T11:40:12.984Z,74016
2017-04-02T11:41:12.968Z,77344
2017-04-02T11:42:12.663Z,86240
2017-04-02T11:43:12.960Z,92736
2017-04-02T11:44:12.643Z,95456
2017-04-02T11:45:12.943Z,81824
2017-04-02T11:46:12.935Z,78848
2017-04-02T11:47:12.921Z,79136
2017-04-02T11:48:12.915Z,91968
2017-04-02T11:49:12.906Z,97664
2017-04-02T11:50:12.899Z,88128
2017-04-02T11:51:12.890Z,85408
2017-04-02T11:52:12.874Z,82336
2017-04-02T11:53:12.871Z,79168
2017-04-02T11:54:12.855Z,83808
2017-04-02T11:55:12.851Z,88160
2017-04-02T11:56:12.843Z,92800
2017-04-02T11:57:12.835Z,92992
2017-04-02T11:58:12.833Z,97696
2017-04-02T11:59:12.813Z,97856
2017-04-02T12:00:12.807Z,98976
2017-04-02T12:01:12.795Z,96864
2017-04-02T12:02:12.491Z,95904
2017-04-02T12:03:12.782Z,96480
2017-04-02T12:04:12.769Z,96416
2017-04-02T12:05:12.765Z,97504
2017-04-02T12:06:12.455Z,50688
2017-04-02T12:07:12.751Z,29696
2017-04-02T12:08:12.436Z,62016
2017-04-02T12:09:12.732Z,100384
2017-04-02T12:10:12.723Z,100800
2017-04-02T12:11:12.418Z,103200
2017-04-02T12:12:12.100Z,105088
2017-04-02T12:13:12.701Z,109440
2017-04-02T12:14:12.688Z,113952
2017-04-02T12:15:12.676Z,107840
2017-04-02T12:16:12.668Z,121056
2017-04-02T12:17:12.660Z,49824
2017-04-02T12:18:12.651Z,109600
2017-04-02T12:19:12.342Z,110688
2017-04-02T12:20:12.636Z,82784
2017-04-02T12:21:12.628Z,105024
2017-04-02T12:22:12.621Z,29120
2017-04-02T12:23:12.610Z,37568
2017-04-02T12:24:12.599Z,77184
2017-04-02T12:25:12.590Z,44288
2017-04-02T12:26:12.582Z,88480
2017-04-02T12:27:12.272Z,108352
2017-04-02T12:28:11.964Z,104256
2017-04-02T12:29:12.554Z,104928
2017-04-02T12:30:12.285Z,107136
2017-04-02T12:31:12.543Z,54496
2017-04-02T12:32:12.532Z,42528
2017-04-02T12:33:12.524Z,59104
2017-04-02T12:34:12.210Z,63360
2017-04-02T12:35:12.544Z,28512
2017-04-02T12:36:11.890Z,29152
2017-04-02T12:37:12.491Z,28000
2017-04-02T12:38:12.176Z,29600
2017-04-02T12:39:12.468Z,29888
2017-04-02T12:40:12.461Z,32032
2017-04-02T12:41:12.456Z,86944
2017-04-02T12:42:12.436Z,44864
2017-04-02T12:43:12.124Z,85504
2017-04-02T12:44:12.413Z,102208
2017-04-02T12:45:12.411Z,98560
2017-04-02T12:46:12.102Z,93792
2017-04-02T12:47:12.396Z,32832
2017-04-02T12:48:11.772Z,32160
2017-04-02T12:49:12.070Z,45920
2017-04-02T12:50:12.356Z,125120
2017-04-02T12:51:12.349Z,35936
2017-04-02T12:52:12.034Z,32384
2017-04-02T12:53:12.330Z,32224
2017-04-02T12:54:12.016Z,36320
2017-04-02T12:55:12.311Z,33632
2017-04-02T12:56:12.303Z,29472
2017-04-02T12:57:12.288Z,35968
2017-04-02T12:58:11.979Z,36608
2017-04-02T12:59:12.268Z,40384
2017-04-02T13:00:11.953Z,76224
2017-04-02T13:01:12.252Z,54688
2017-04-02T13:02:12.239Z,39392
2017-04-02T13:03:12.226Z,37152
2017-04-02T13:04:11.916Z,33728
2017-04-02T13:05:12.207Z,28672
2017-04-02T13:06:12.199Z,25984
2017-04-02T13:07:12.191Z,26592
2017-04-02T13:08:12.177Z,35840
2017-04-02T13:09:12.165Z,27936
2017-04-02T13:10:11.858Z,32160
2017-04-02T13:11:12.147Z,33024
2017-04-02T13:12:11.834Z,33376
2017-04-02T13:13:12.126Z,33568
2017-04-02T13:14:12.113Z,32800
2017-04-02T13:15:12.103Z,32320
2017-04-02T13:16:12.089Z,32384
2017-04-02T13:17:12.076Z,35328
2017-04-02T13:18:12.067Z,40896
2017-04-02T13:19:12.086Z,92512
2017-04-02T13:20:11.745Z,48224
2017-04-02T13:21:12.031Z,40928
2017-04-02T13:22:12.024Z,36288
2017-04-02T13:23:12.003Z,35680
2017-04-02T13:24:11.999Z,37696
2017-04-02T13:25:11.683Z,40576
2017-04-02T13:26:11.369Z,38688
2017-04-02T13:27:11.967Z,35936
2017-04-02T13:28:11.945Z,50400
2017-04-02T13:29:11.945Z,36832